METAR Formatted Surface Weather Observation
Issued by NWS

Home | Current Version | Previous Version | Text Only | Print | Product List | Glossary On
Versions: 1 2 3 4 5 6 7 8 9 10 11 12 13 14 15 16 17 18 19 20 21 22 23 24 25 26
000
SAUS45 KPSR 210357
MTRFHU
METAR KFHU 210356Z AUTO 24008KT 10SM CLR 21/18 A3012 RMK AO2 SLP140
T02110178 $



USA.gov is the U.S. government's official web portal to all federal, state and local government web resources and services.